TimeEST,TemperatureF,Dew PointF,Humidity,Sea Level PressureIn,VisibilityMPH,Wind Direction,Wind SpeedMPH,Gust SpeedMPH,PrecipitationIn,Events,Conditions,WindDirDegrees,DateUTC
12:52 AM,-20.9,-27.0,73,30.14,10.0,Calm,Calm,-,N/A,,Clear,0,2013-01-24 05:52:00
1:52 AM,-23.1,-29.0,74,30.14,10.0,Calm,Calm,-,N/A,,Clear,0,2013-01-24 06:52:00
2:52 AM,-23.1,-29.0,74,30.14,10.0,Calm,Calm,-,N/A,,Clear,0,2013-01-24 07:52:00
3:52 AM,-24.0,-32.1,66,30.14,10.0,Calm,Calm,-,N/A,,Clear,0,2013-01-24 08:52:00
4:52 AM,-25.1,-33.0,66,30.14,10.0,Calm,Calm,-,N/A,,Mostly Cloudy,0,2013-01-24 09:52:00
5:52 AM,-24.0,-32.1,66,30.15,10.0,Calm,Calm,-,N/A,,Clear,0,2013-01-24 10:52:00
6:52 AM,-25.1,-32.1,70,30.18,10.0,Calm,Calm,-,N/A,,Scattered Clouds,0,2013-01-24 11:52:00
7:52 AM,-24.0,-31.0,70,30.19,10.0,Calm,Calm,-,N/A,,Mostly Cloudy,0,2013-01-24 12:52:00
8:52 AM,-20.0,-27.0,70,30.19,10.0,Calm,Calm,-,N/A,,Clear,0,2013-01-24 13:52:00
9:52 AM,-5.1,-18.9,51,30.18,10.0,SSW,6.9,-,N/A,,Scattered Clouds,200,2013-01-24 14:52:00
10:52 AM,-0.9,-20.0,40,30.16,10.0,Variable,4.6,-,N/A,,Clear,0,2013-01-24 15:52:00
11:52 AM,1.0,-18.9,39,30.13,10.0,WSW,6.9,-,N/A,,Clear,250,2013-01-24 16:52:00
12:52 PM,3.0,-18.0,37,30.09,10.0,West,11.5,17.3,N/A,,Clear,270,2013-01-24 17:52:00
1:52 PM,5.0,-17.0,36,30.09,10.0,West,6.9,18.4,N/A,,Clear,260,2013-01-24 18:52:00
2:52 PM,6.1,-17.0,34,30.08,10.0,SW,8.1,20.7,N/A,,Clear,230,2013-01-24 19:52:00
3:52 PM,6.1,-16.1,36,30.10,10.0,West,8.1,-,N/A,,Clear,270,2013-01-24 20:52:00
4:52 PM,1.9,-16.1,43,30.15,10.0,WNW,6.9,-,N/A,,Mostly Cloudy,300,2013-01-24 21:52:00
5:52 PM,1.0,-14.1,49,30.19,10.0,WSW,3.5,-,N/A,,Overcast,250,2013-01-24 22:52:00
6:52 PM,-0.9,-11.0,62,30.23,10.0,WSW,10.4,-,N/A,,Overcast,250,2013-01-24 23:52:00
7:52 PM,-0.9,-11.0,62,30.24,10.0,West,9.2,-,N/A,,Overcast,270,2013-01-25 00:52:00
8:52 PM,-0.9,-11.0,62,30.26,10.0,West,6.9,-,N/A,,Overcast,280,2013-01-25 01:52:00
9:52 PM,-0.9,-9.9,66,30.27,9.0,WNW,6.9,-,N/A,,Overcast,290,2013-01-25 02:52:00
10:50 PM,-0.4,-11.2,60,30.19,10.0,West,9.2,-,N/A,,Overcast,260,2013-01-25 03:50:00
10:52 PM,-0.9,-11.9,60,30.29,10.0,West,11.5,17.3,N/A,,Overcast,260,2013-01-25 03:52:00
11:06 PM,-2.2,-11.2,66,30.20,10.0,WSW,4.6,-,N/A,,Overcast,250,2013-01-25 04:06:00
11:52 PM,-2.0,-11.0,66,30.31,10.0,Variable,4.6,-,N/A,,Overcast,0,2013-01-25 04:52:00